Time;durP1;ratioP1;P1;durP2;ratioP2;P2;SDS_P1;SDS_P2;PMS_P1;PMS_P2;Temp;Humidity;BMP_temperature;BMP_pressure;BME280_temperature;BME280_humidity;BME280_pressure;Samples;Min_cycle;Max_cycle;Signal;HPM_P1;HPM_P2
2023/10/09 00:01:01;;;;;;;11.10;4.63;;;;;;;16.46;74.05;99751.81;7245403;40;20409;31
2023/10/09 00:06:37;;;;;;;8.93;4.07;;;;;;;16.44;75.21;99750.34;7215631;40;20265;31
2023/10/09 00:17:18;;;;;;;14.70;4.57;;;;;;;16.55;74.57;99728.06;7320955;39;20378;31
2023/10/09 00:22:56;;;;;;;12.57;5.13;;;;;;;16.72;75.19;99718.63;7308100;39;20253;31
2023/10/09 00:28:29;;;;;;;10.25;4.00;;;;;;;16.92;74.46;99707.97;7288293;39;20245;31
2023/10/09 00:34:05;;;;;;;7.20;4.35;;;;;;;17.01;74.03;99707.66;7300207;39;20382;31
2023/10/09 00:39:43;;;;;;;9.05;4.75;;;;;;;17.03;74.01;99697.38;7239540;40;20253;31
2023/10/09 00:45:24;;;;;;;8.25;3.65;;;;;;;17.11;73.68;99699.16;7227679;40;20382;31
2023/10/09 00:50:53;;;;;;;9.60;4.37;;;;;;;17.06;74.05;99690.72;7281582;39;20695;31
2023/10/09 00:56:38;;;;;;;8.53;4.80;;;;;;;17.00;74.33;99692.34;7297959;39;20279;31
2023/10/09 01:01:58;;;;;;;7.83;4.07;;;;;;;17.05;73.49;99691.75;7327883;39;20252;31
2023/10/09 01:07:20;;;;;;;9.87;4.40;;;;;;;17.15;73.77;99685.97;7371110;39;20354;31
2023/10/09 01:12:55;;;;;;;8.20;4.00;;;;;;;17.10;74.62;99673.78;7286292;39;20268;31
2023/10/09 01:18:35;;;;;;;11.03;4.20;;;;;;;17.16;73.82;99676.75;7272888;40;20261;31
2023/10/09 01:24:08;;;;;;;9.37;4.53;;;;;;;17.18;73.93;99670.06;7247476;40;21450;31
2023/10/09 01:29:41;;;;;;;7.60;4.20;;;;;;;17.17;73.71;99662.06;7239143;39;20273;31
2023/10/09 01:35:21;;;;;;;5.95;3.55;;;;;;;17.27;73.88;99660.72;7209511;40;20250;31
2023/10/09 01:40:51;;;;;;;10.70;4.43;;;;;;;17.34;73.48;99660.75;7226042;40;20380;31
2023/10/09 01:46:11;;;;;;;10.90;4.00;;;;;;;17.40;73.54;99665.41;7258160;40;20305;31
2023/10/09 01:51:33;;;;;;;10.35;4.55;;;;;;;17.39;73.06;99661.00;7294595;39;20371;31
2023/10/09 01:57:09;;;;;;;7.90;3.73;;;;;;;17.35;73.40;99654.25;7263860;40;20391;31
2023/10/09 02:02:33;;;;;;;9.60;3.90;;;;;;;17.44;72.78;99653.06;7253456;40;20238;31
2023/10/09 02:08:05;;;;;;;9.80;4.23;;;;;;;17.50;72.41;99639.50;7298125;39;20354;31
2023/10/09 02:13:42;;;;;;;7.53;4.37;;;;;;;17.47;73.25;99642.59;7307723;39;20260;31
2023/10/09 02:19:08;;;;;;;7.80;4.15;;;;;;;17.47;72.69;99652.66;7296461;39;20329;31
2023/10/09 02:29:42;;;;;;;11.85;4.00;;;;;;;17.50;73.17;99646.81;7270897;39;20252;31
2023/10/09 02:35:10;;;;;;;8.27;3.87;;;;;;;17.51;72.76;99641.16;7275342;39;20422;31
2023/10/09 02:41:00;;;;;;;8.50;4.23;;;;;;;17.50;72.79;99633.19;7322807;39;20291;31
2023/10/09 02:46:19;;;;;;;9.60;4.00;;;;;;;17.55;72.27;99628.00;7297299;40;20304;31
2023/10/09 02:51:54;;;;;;;10.03;4.40;;;;;;;17.56;72.52;99621.47;7298101;39;20313;31
2023/10/09 02:57:36;;;;;;;7.77;4.20;;;;;;;17.61;72.23;99626.34;7307404;39;20249;31
2023/10/09 03:03:18;;;;;;;9.00;3.75;;;;;;;17.61;71.82;99623.62;7256131;40;20322;31
2023/10/09 03:08:36;;;;;;;8.05;4.05;;;;;;;17.62;71.83;99626.16;7249192;40;20346;31
2023/10/09 03:14:07;;;;;;;11.70;4.10;;;;;;;17.57;71.77;99614.97;7258312;40;20425;31
2023/10/09 03:19:45;;;;;;;9.40;4.30;;;;;;;17.54;71.44;99629.03;7241431;40;20370;31
2023/10/09 03:25:17;;;;;;;11.55;3.60;;;;;;;17.47;71.88;99617.22;7322761;39;21529;31
2023/10/09 03:30:53;;;;;;;10.70;3.80;;;;;;;17.45;71.93;99620.16;7359190;39;20394;31
2023/10/09 03:41:40;;;;;;;7.87;4.22;;;;;;;17.43;72.25;99630.41;7291633;39;20368;31
2023/10/09 03:52:17;;;;;;;8.48;3.83;;;;;;;17.43;72.24;99635.03;7307792;39;20275;31
2023/10/09 04:02:54;;;;;;;10.30;4.40;;;;;;;17.39;71.50;99641.91;7360823;39;20269;31
2023/10/09 04:08:28;;;;;;;8.17;3.97;;;;;;;17.41;71.69;99648.88;7304167;39;20276;31
2023/10/09 04:13:40;;;;;;;8.85;4.50;;;;;;;17.42;71.71;99650.53;7354890;39;20264;31
2023/10/09 04:19:11;;;;;;;12.05;6.70;;;;;;;17.33;72.21;99642.72;7318546;39;20237;31
2023/10/09 04:24:48;;;;;;;13.35;9.30;;;;;;;17.30;71.63;99649.41;7313472;39;20407;31
2023/10/09 04:30:23;;;;;;;15.43;5.87;;;;;;;17.29;71.28;99644.97;7300958;40;20496;31
2023/10/09 04:41:27;;;;;;;8.60;5.00;;;;;;;17.31;72.04;99637.47;7281396;40;20278;31
2023/10/09 04:52:53;;;;;;;8.75;4.25;;;;;;;17.31;71.58;99636.63;7317044;39;21277;31
2023/10/09 04:58:23;;;;;;;11.40;4.45;;;;;;;17.36;70.74;99635.00;7310918;39;20279;31
2023/10/09 05:03:44;;;;;;;9.90;4.50;;;;;;;17.36;71.52;99632.25;7244245;40;20372;31
2023/10/09 05:09:21;;;;;;;11.35;4.05;;;;;;;17.33;71.53;99627.19;7250670;40;20246;31
2023/10/09 05:15:09;;;;;;;11.33;4.13;;;;;;;17.37;71.82;99630.38;7274160;39;20356;31
2023/10/09 05:21:35;;;;;;;13.20;4.67;;;;;;;17.37;71.41;99638.56;7318022;39;20263;31
2023/10/09 05:26:50;;;;;;;10.20;4.37;;;;;;;17.37;70.47;99635.84;7255563;40;20644;31
2023/10/09 05:37:22;;;;;;;13.02;4.46;;;;;;;17.38;70.72;99651.97;7291568;39;20288;31
2023/10/09 05:43:02;;;;;;;10.67;4.50;;;;;;;17.36;69.67;99639.59;7288463;39;20260;31
2023/10/09 05:54:11;;;;;;;12.20;4.80;;;;;;;17.42;70.87;99652.44;7339651;39;20250;31
2023/10/09 06:05:06;;;;;;;11.95;4.90;;;;;;;17.40;70.76;99682.59;7366769;39;20242;31
2023/10/09 06:10:37;;;;;;;15.20;5.40;;;;;;;17.41;70.74;99687.03;7338189;39;20483;31
2023/10/09 06:22:19;;;;;;;11.93;4.87;;;;;;;17.33;70.62;99699.94;7359075;39;20269;31
2023/10/09 06:27:24;;;;;;;7.97;3.97;;;;;;;17.37;70.39;99701.25;7358812;39;20241;31
2023/10/09 06:33:04;;;;;;;12.97;5.20;;;;;;;17.33;71.29;99691.78;7357938;39;20346;31
2023/10/09 06:38:51;;;;;;;16.85;5.75;;;;;;;17.36;71.36;99689.50;7250284;40;20263;31
2023/10/09 06:44:51;;;;;;;13.27;5.77;;;;;;;17.37;71.06;99690.34;7319392;39;20249;31
2023/10/09 06:50:24;;;;;;;13.63;6.80;;;;;;;17.39;70.84;99688.25;7289199;39;21510;31
2023/10/09 06:55:19;;;;;;;11.43;6.17;;;;;;;17.47;69.98;99704.44;7277982;39;20237;31
2023/10/09 07:11:57;;;;;;;12.70;5.13;;;;;;;17.50;70.35;99698.63;7267622;39;20276;31
2023/10/09 07:16:58;;;;;;;16.37;4.57;;;;;;;17.54;69.90;99708.91;7317846;39;20343;31
2023/10/09 07:22:39;;;;;;;17.15;4.70;;;;;;;17.55;69.89;99720.66;7322382;39;20256;31
2023/10/09 07:28:28;;;;;;;14.00;4.97;;;;;;;17.54;69.77;99724.44;7336698;39;20246;31
2023/10/09 07:33:57;;;;;;;16.03;5.03;;;;;;;17.55;69.74;99713.31;7254196;40;20481;31
2023/10/09 07:39:22;;;;;;;13.00;5.00;;;;;;;17.51;69.87;99708.44;7260134;40;20247;31
2023/10/09 07:44:57;;;;;;;14.67;4.67;;;;;;;17.54;69.57;99718.97;7269212;40;20351;31
2023/10/09 07:50:21;;;;;;;17.87;4.57;;;;;;;17.61;69.70;99724.50;7276061;39;20462;31
2023/10/09 07:55:55;;;;;;;15.35;4.40;;;;;;;17.62;69.76;99710.69;7319113;39;20251;31
2023/10/09 08:06:42;;;;;;;13.88;4.70;;;;;;;17.81;69.64;99728.22;7317071;39;20258;31
2023/10/09 08:18:13;;;;;;;12.45;4.40;;;;;;;17.90;69.11;99729.75;7288022;39;20267;31
2023/10/09 08:23:49;;;;;;;14.37;4.33;;;;;;;17.94;69.24;99745.50;7297787;39;20349;31
2023/10/09 08:29:19;;;;;;;11.30;4.77;;;;;;;17.91;69.22;99740.44;7271088;40;20253;31
2023/10/09 08:34:53;;;;;;;15.87;4.53;;;;;;;17.95;69.95;99747.16;7289474;39;20241;31
2023/10/09 08:40:31;;;;;;;17.33;5.13;;;;;;;18.07;69.35;99747.47;7289587;39;20338;31
2023/10/09 08:46:04;;;;;;;10.90;3.85;;;;;;;18.20;68.85;99741.25;7290041;39;20424;31
2023/10/09 08:51:42;;;;;;;13.43;4.33;;;;;;;18.35;68.91;99742.75;7322738;39;20252;31
2023/10/09 08:57:18;;;;;;;11.40;4.37;;;;;;;18.42;69.01;99734.63;7271742;39;20273;31
2023/10/09 09:02:38;;;;;;;11.83;4.40;;;;;;;18.43;68.65;99733.56;7284923;39;20249;31
2023/10/09 09:07:59;;;;;;;12.10;4.50;;;;;;;18.51;68.73;99744.31;7240823;40;20430;31
2023/10/09 09:18:45;;;;;;;12.90;4.30;;;;;;;18.83;67.97;99756.41;7281304;39;20364;31
2023/10/09 09:29:18;;;;;;;16.80;4.70;;;;;;;19.23;67.59;99754.59;7370610;39;20288;31
2023/10/09 09:40:00;;;;;;;9.53;4.03;;;;;;;19.61;66.55;99755.72;7410621;39;20267;31
2023/10/09 09:50:24;;;;;;;9.47;4.13;;;;;;;19.73;66.96;99766.84;7323061;39;20517;31
2023/10/09 10:01:08;;;;;;;12.10;4.47;;;;;;;19.97;65.76;99776.28;7352972;39;20303;31
2023/10/09 10:06:40;;;;;;;12.27;4.30;;;;;;;20.06;66.15;99755.84;7298261;39;20334;31
2023/10/09 10:12:17;;;;;;;11.15;4.00;;;;;;;20.14;66.34;99747.41;7264105;39;21403;31
2023/10/09 10:17:58;;;;;;;15.40;4.45;;;;;;;20.08;65.61;99738.16;7238704;40;20282;31
2023/10/09 10:23:34;;;;;;;11.53;4.30;;;;;;;20.06;64.81;99753.94;7257062;39;20371;31
2023/10/09 10:29:34;;;;;;;11.87;3.83;;;;;;;20.06;65.24;99751.19;7211226;40;20324;31
2023/10/09 10:35:11;;;;;;;8.50;3.80;;;;;;;20.00;65.04;99743.03;7269097;39;20241;31
2023/10/09 10:40:46;;;;;;;9.15;3.75;;;;;;;20.02;64.52;99738.16;7278514;39;20251;31
2023/10/09 10:46:30;;;;;;;11.20;3.70;;;;;;;20.01;64.85;99750.19;7178377;40;20278;31
2023/10/09 10:52:14;;;;;;;8.70;3.50;;;;;;;20.04;65.62;99750.59;7198180;40;20526;31
2023/10/09 11:03:54;;;;;;;11.00;3.77;;;;;;;20.19;64.85;99761.28;7342568;38;9977660;31
2023/10/09 11:08:59;;;;;;;10.57;4.10;;;;;;;20.29;65.51;99745.25;7447983;39;20241;31
2023/10/09 11:14:42;;;;;;;10.00;4.00;;;;;;;20.36;64.26;99754.28;7405970;39;20448;31
2023/10/09 11:25:51;;;;;;;8.38;4.12;;;;;;;20.73;63.23;99754.56;7341051;39;20243;31
2023/10/09 11:31:26;;;;;;;10.80;4.00;;;;;;;20.70;63.66;99750.37;7304034;39;20321;31
2023/10/09 11:37:02;;;;;;;7.05;3.83;;;;;;;20.74;62.72;99737.94;7309627;39;20324;31
2023/10/09 11:42:38;;;;;;;9.95;3.70;;;;;;;20.96;62.53;99733.78;7303148;39;20240;31
2023/10/09 11:48:12;;;;;;;9.18;3.62;;;;;;;21.27;61.89;99723.91;7306727;39;20252;31
2023/10/09 11:53:58;;;;;;;10.50;4.05;;;;;;;21.54;60.72;99709.72;7312715;39;20330;31
2023/10/09 11:59:37;;;;;;;10.75;4.00;;;;;;;21.86;60.99;99695.91;7302541;39;20323;31
2023/10/09 12:05:08;;;;;;;11.45;4.05;;;;;;;22.03;58.81;99689.63;7293088;39;20283;31
2023/10/09 12:10:48;;;;;;;9.40;3.65;;;;;;;22.01;59.13;99688.19;7333453;39;20263;31
2023/10/09 12:16:22;;;;;;;10.80;3.60;;;;;;;21.97;58.41;99684.22;7305279;39;21397;31
2023/10/09 12:21:42;;;;;;;9.27;4.05;;;;;;;22.07;58.51;99680.94;7323457;39;20376;31
2023/10/09 12:27:20;;;;;;;11.40;3.93;;;;;;;22.29;56.93;99661.00;7314988;39;20264;31
2023/10/09 12:37:56;;;;;;;5.65;3.67;;;;;;;22.67;54.23;99657.09;7392893;39;20376;31
2023/10/09 12:43:37;;;;;;;11.43;4.63;;;;;;;22.95;54.83;99651.81;7423485;39;20250;31
2023/10/09 12:49:08;;;;;;;8.48;4.20;;;;;;;23.00;53.04;99649.22;7381994;39;20339;31
2023/10/09 12:54:46;;;;;;;6.85;3.85;;;;;;;23.21;52.67;99656.91;7302255;40;20291;31
2023/10/09 13:00:25;;;;;;;7.32;4.22;;;;;;;23.35;51.00;99644.59;7294019;39;20258;31
2023/10/09 13:06:03;;;;;;;9.74;4.04;;;;;;;23.50;48.42;99630.41;7287565;39;20236;31
2023/10/09 13:11:37;;;;;;;10.15;4.70;;;;;;;23.63;48.10;99641.16;7308818;39;20264;31
2023/10/09 13:17:13;;;;;;;12.00;4.80;;;;;;;23.69;47.57;99631.97;7286410;39;20289;31
2023/10/09 13:22:47;;;;;;;9.55;4.40;;;;;;;23.71;47.16;99628.94;7297676;39;20272;31
2023/10/09 13:33:36;;;;;;;7.18;4.43;;;;;;;23.52;47.58;99616.41;7330508;39;20269;31
2023/10/09 13:39:21;;;;;;;10.25;5.45;;;;;;;23.63;47.60;99613.66;7379408;39;20231;31
2023/10/09 13:44:42;;;;;;;13.20;4.67;;;;;;;23.58;44.82;99612.69;7333730;39;20436;31
2023/10/09 13:50:21;;;;;;;8.80;4.12;;;;;;;23.61;45.31;99602.03;7304533;39;20433;31
2023/10/09 13:55:43;;;;;;;8.05;4.90;;;;;;;23.71;44.61;99618.78;7276544;39;20261;31
2023/10/09 14:01:26;;;;;;;9.50;5.12;;;;;;;23.73;43.72;99605.63;7306460;39;20244;31
2023/10/09 14:07:00;;;;;;;10.45;4.90;;;;;;;23.68;44.73;99596.41;7347552;39;20235;31
2023/10/09 14:12:39;;;;;;;13.25;4.90;;;;;;;23.82;44.17;99599.72;7372995;39;20434;31
2023/10/09 14:18:11;;;;;;;9.87;4.70;;;;;;;23.88;44.57;99591.31;7318634;39;20588;31
2023/10/09 14:23:47;;;;;;;8.33;4.63;;;;;;;23.87;45.42;99597.91;7277970;40;20316;31
2023/10/09 14:29:07;;;;;;;8.30;4.50;;;;;;;23.93;45.66;99596.94;7306454;39;21630;31
2023/10/09 14:39:48;;;;;;;12.10;4.30;;;;;;;23.62;46.06;99578.09;7366847;39;20332;31
2023/10/09 14:45:08;;;;;;;9.15;5.00;;;;;;;23.59;47.26;99573.06;7330215;39;20230;31
2023/10/09 14:50:28;;;;;;;13.45;4.75;;;;;;;23.52;47.46;99567.69;7333488;39;20255;31
2023/10/09 14:56:08;;;;;;;10.56;4.70;;;;;;;23.44;47.87;99570.81;7340621;39;20431;31
2023/10/09 15:01:25;;;;;;;8.20;4.70;;;;;;;23.44;47.85;99569.97;7314632;39;20240;31
2023/10/09 15:06:44;;;;;;;8.54;4.52;;;;;;;23.40;49.00;99566.00;7337614;39;20423;31
2023/10/09 15:17:25;;;;;;;13.70;5.40;;;;;;;23.18;47.72;99566.59;7351033;39;20378;31
2023/10/09 15:23:01;;;;;;;10.85;5.15;;;;;;;23.21;47.88;99577.13;7328448;39;20248;31
2023/10/09 15:28:36;;;;;;;12.50;5.10;;;;;;;23.13;47.92;99573.91;7336078;39;20332;31
2023/10/09 15:34:13;;;;;;;11.50;4.95;;;;;;;23.06;47.81;99557.53;7276616;40;20241;31
2023/10/09 15:39:50;;;;;;;12.63;4.90;;;;;;;23.01;47.61;99554.66;7217941;40;20257;31
2023/10/09 15:45:13;;;;;;;9.35;5.60;;;;;;;22.99;47.69;99558.72;7284968;39;20255;31
2023/10/09 15:50:51;;;;;;;9.23;4.43;;;;;;;22.92;47.54;99545.06;7286660;39;20370;31
2023/10/09 15:56:26;;;;;;;13.20;5.04;;;;;;;22.86;47.48;99559.78;7274616;39;20373;31
2023/10/09 16:02:03;;;;;;;7.43;4.95;;;;;;;22.81;48.23;99556.91;7290138;39;20237;31
2023/10/09 16:07:38;;;;;;;10.40;4.60;;;;;;;22.81;47.24;99562.41;7310334;39;20237;31
2023/10/09 16:13:00;;;;;;;11.68;4.98;;;;;;;22.79;47.96;99562.62;7294721;39;20441;31
2023/10/09 16:18:20;;;;;;;10.73;5.12;;;;;;;22.74;48.15;99576.25;7321416;39;20255;31
2023/10/09 16:23:59;;;;;;;13.37;5.27;;;;;;;22.66;47.44;99562.81;7314401;39;20370;31
2023/10/09 16:29:32;;;;;;;11.38;5.07;;;;;;;22.61;48.38;99572.84;7316295;39;20348;31
2023/10/09 16:35:06;;;;;;;9.50;5.00;;;;;;;22.52;48.16;99582.50;7298267;39;20247;31
2023/10/09 16:40:46;;;;;;;11.05;4.90;;;;;;;22.43;47.72;99574.59;7330084;39;20240;31
2023/10/09 16:46:18;;;;;;;12.18;5.75;;;;;;;22.40;48.39;99574.22;7268568;39;20342;31
2023/10/09 16:51:51;;;;;;;10.50;5.32;;;;;;;22.37;47.83;99591.19;7306197;39;20272;31
2023/10/09 17:02:38;;;;;;;9.00;5.22;;;;;;;22.17;47.85;99596.09;7308154;39;20370;31
2023/10/09 17:13:11;;;;;;;13.75;5.40;;;;;;;22.10;47.20;99590.69;7395213;39;20269;31
2023/10/09 17:18:47;;;;;;;8.93;5.47;;;;;;;22.03;47.55;99599.00;7340514;39;20236;31
2023/10/09 17:24:22;;;;;;;12.00;5.10;;;;;;;21.98;47.87;99587.88;7310137;39;20269;31
2023/10/09 17:35:03;;;;;;;9.25;5.00;;;;;;;21.84;48.79;99585.53;7288344;39;20286;31
2023/10/09 17:45:29;;;;;;;9.85;5.50;;;;;;;21.83;48.42;99589.31;7406342;39;20270;31
2023/10/09 17:56:08;;;;;;;13.82;5.85;;;;;;;21.74;50.24;99590.69;7198794;39;21264;31
2023/10/09 18:01:30;;;;;;;10.10;4.57;;;;;;;21.68;51.09;99594.34;7379160;39;20253;31
2023/10/09 18:06:48;;;;;;;19.22;7.98;;;;;;;21.61;50.92;99590.84;7319227;39;20360;31
2023/10/09 18:12:21;;;;;;;10.90;5.55;;;;;;;21.47;51.59;99591.00;7360124;39;20341;31
2023/10/09 18:17:56;;;;;;;10.32;5.40;;;;;;;21.40;52.47;99592.16;7292503;39;20245;31
2023/10/09 18:23:31;;;;;;;11.60;5.25;;;;;;;21.27;52.57;99579.41;7305888;39;20237;31
2023/10/09 18:29:05;;;;;;;9.96;5.48;;;;;;;21.19;53.39;99590.66;7317235;39;20337;31
2023/10/09 18:34:40;;;;;;;13.10;5.70;;;;;;;21.14;53.55;99590.50;7307908;39;20262;31
2023/10/09 18:40:05;;;;;;;10.55;5.40;;;;;;;21.15;53.35;99596.81;7276677;39;20241;31
2023/10/09 18:45:37;;;;;;;9.95;5.10;;;;;;;21.01;53.93;99590.59;7295179;39;20344;31
2023/10/09 18:51:13;;;;;;;10.32;5.64;;;;;;;21.02;52.70;99593.09;7368625;39;20324;31
2023/10/09 18:56:47;;;;;;;15.45;6.25;;;;;;;21.03;52.46;99588.44;7391488;39;20326;31
2023/10/09 19:02:23;;;;;;;9.38;5.45;;;;;;;21.01;52.59;99582.37;7362233;39;20248;31
2023/10/09 19:07:58;;;;;;;13.80;5.30;;;;;;;20.99;52.10;99584.47;7248102;39;20320;31
2023/10/09 19:13:35;;;;;;;12.20;5.77;;;;;;;20.98;51.69;99600.09;7237889;40;20253;31
2023/10/09 19:19:09;;;;;;;10.95;5.15;;;;;;;20.99;51.50;99600.91;7240297;40;20416;31
2023/10/09 19:24:30;;;;;;;9.73;5.20;;;;;;;20.98;51.23;99600.09;7238679;40;20272;31
2023/10/09 19:30:06;;;;;;;12.35;5.40;;;;;;;21.00;50.99;99600.72;7239096;40;20257;31
2023/10/09 19:35:42;;;;;;;8.84;5.16;;;;;;;21.04;49.76;99601.94;7175700;40;20269;31
2023/10/09 19:41:19;;;;;;;10.27;5.30;;;;;;;21.08;49.92;99603.16;7311393;39;20271;31
2023/10/09 19:46:54;;;;;;;11.15;4.85;;;;;;;21.03;50.40;99608.47;7270600;40;20241;31
2023/10/09 19:52:30;;;;;;;8.60;5.30;;;;;;;20.99;50.31;99606.41;7264011;40;20241;31
2023/10/09 19:58:04;;;;;;;7.75;5.05;;;;;;;20.83;51.75;99606.97;7268611;40;20261;31
2023/10/09 20:03:23;;;;;;;8.43;4.97;;;;;;;20.67;52.13;99608.34;7348818;39;20300;31
2023/10/09 20:08:59;;;;;;;11.15;5.40;;;;;;;20.54;52.27;99608.44;7318912;39;20273;31
2023/10/09 20:14:20;;;;;;;9.82;5.25;;;;;;;20.52;53.00;99613.31;7314028;39;20240;31
2023/10/09 20:19:56;;;;;;;8.60;5.10;;;;;;;20.39;53.96;99613.37;7329661;39;20251;31
2023/10/09 20:25:30;;;;;;;8.80;5.50;;;;;;;20.27;53.08;99621.44;7297415;39;20782;31
2023/10/09 20:31:08;;;;;;;9.35;5.12;;;;;;;20.12;52.83;99632.66;7288023;39;20891;31
2023/10/09 20:36:29;;;;;;;10.10;5.60;;;;;;;20.02;52.80;99634.16;7276159;39;20723;31
2023/10/09 20:42:05;;;;;;;12.00;5.50;;;;;;;20.01;53.67;99644.25;7287967;39;20345;31
2023/10/09 20:47:39;;;;;;;10.45;5.70;;;;;;;19.94;54.44;99648.09;7307673;39;20259;31
2023/10/09 20:53:00;;;;;;;8.02;5.00;;;;;;;19.84;54.58;99648.53;7296695;39;20245;31
2023/10/09 20:58:39;;;;;;;8.03;5.67;;;;;;;19.55;53.47;99652.63;7310821;39;20335;31
2023/10/09 21:03:57;;;;;;;7.90;5.37;;;;;;;19.41;54.47;99664.59;7288791;39;20258;31
2023/10/09 21:09:18;;;;;;;8.40;5.70;;;;;;;19.26;53.25;99683.13;7328566;39;20338;31
2023/10/09 21:14:52;;;;;;;8.03;5.43;;;;;;;19.02;54.52;99681.00;7349339;39;20250;31
2023/10/09 21:20:30;;;;;;;8.33;5.57;;;;;;;18.92;55.63;99687.72;7317721;39;20316;31
2023/10/09 21:25:51;;;;;;;8.00;5.50;;;;;;;18.79;55.91;99698.63;7353047;39;20295;31
2023/10/09 21:31:25;;;;;;;8.87;5.33;;;;;;;18.54;57.46;99696.66;7335141;39;20328;31
2023/10/09 21:37:00;;;;;;;8.57;5.03;;;;;;;18.38;57.47;99703.31;7278766;39;20263;31
2023/10/09 21:42:21;;;;;;;11.20;5.57;;;;;;;18.35;57.54;99718.19;7311289;39;20252;31
2023/10/09 21:47:57;;;;;;;9.40;5.47;;;;;;;18.17;57.68;99703.41;7335453;39;20240;31
2023/10/09 21:53:32;;;;;;;9.10;5.60;;;;;;;18.15;57.87;99714.56;7339769;39;20343;31
2023/10/09 21:58:52;;;;;;;8.70;5.60;;;;;;;18.17;57.66;99717.91;7317327;39;20244;31
2023/10/09 22:04:27;;;;;;;8.83;5.73;;;;;;;18.16;57.47;99718.97;7309441;39;20355;31
2023/10/09 22:10:01;;;;;;;12.13;5.73;;;;;;;18.17;57.44;99719.78;7352956;39;20236;31
2023/10/09 22:15:22;;;;;;;11.63;5.80;;;;;;;18.12;58.46;99723.16;7401367;39;20250;31
2023/10/09 22:20:57;;;;;;;8.83;5.27;;;;;;;18.08;58.26;99712.84;7384408;39;21570;31
2023/10/09 22:26:19;;;;;;;8.95;5.35;;;;;;;18.03;59.17;99706.09;7357204;39;20259;31
2023/10/09 22:31:38;;;;;;;11.00;5.23;;;;;;;17.84;59.51;99706.84;7335672;39;20255;31
2023/10/09 22:37:14;;;;;;;10.17;5.47;;;;;;;17.63;60.10;99704.19;7349665;39;20324;31
2023/10/09 22:42:47;;;;;;;9.70;5.33;;;;;;;17.55;60.48;99701.59;7320543;39;20248;31
2023/10/09 22:48:26;;;;;;;11.33;5.13;;;;;;;17.49;60.42;99688.75;7253646;40;20296;31
2023/10/09 22:54:00;;;;;;;9.90;5.40;;;;;;;17.36;61.00;99700.41;7230257;40;20803;31
2023/10/09 22:59:43;;;;;;;10.43;5.60;;;;;;;17.20;61.29;99694.41;7258740;40;20389;31
2023/10/09 23:05:12;;;;;;;9.10;5.20;;;;;;;17.21;61.08;99693.34;7281922;40;20319;31
2023/10/09 23:10:50;;;;;;;10.37;5.43;;;;;;;17.18;61.01;99680.13;7302968;39;20391;31
2023/10/09 23:16:25;;;;;;;8.97;5.50;;;;;;;17.05;60.96;99683.56;7309754;39;20244;31
2023/10/09 23:22:08;;;;;;;9.45;5.35;;;;;;;16.74;61.92;99683.06;7295121;39;20244;31
2023/10/09 23:27:48;;;;;;;11.10;5.07;;;;;;;16.43;63.34;99686.06;7289919;40;21610;31
2023/10/09 23:33:23;;;;;;;10.80;5.30;;;;;;;16.34;63.30;99692.62;7288642;40;20312;31
2023/10/09 23:39:09;;;;;;;9.30;5.13;;;;;;;16.15;63.92;99694.09;7296195;39;20350;31
2023/10/09 23:44:20;;;;;;;10.90;4.97;;;;;;;16.05;64.90;99688.13;7352728;39;21461;31
2023/10/09 23:49:38;;;;;;;13.63;5.47;;;;;;;15.97;64.53;99694.47;7347122;39;20243;31
2023/10/09 23:55:12;;;;;;;8.90;4.97;;;;;;;16.07;64.19;99684.16;7372776;39;20241;31
